Time;durP1;ratioP1;P1;durP2;ratioP2;P2;SDS_P1;SDS_P2;PMS_P1;PMS_P2;Temp;Humidity;BMP_temperature;BMP_pressure;BME280_temperature;BME280_humidity;BME280_pressure;Samples;Min_cycle;Max_cycle;Signal;HPM_P1;HPM_P2
2022/03/05 00:00:33;;;;;;;6.57;3.00;;;;;;;-0.58;70.14;101918.66;4984081;28;20446;-59
2022/03/05 00:03:00;;;;;;;8.70;2.67;;;;;;;-0.61;70.21;101913.41;4984453;28;20057;-58
2022/03/05 00:05:26;;;;;;;8.55;3.50;;;;;;;-0.62;70.28;101921.81;4984754;28;20050;-59
2022/03/05 00:07:53;;;;;;;5.82;2.40;;;;;;;-0.64;70.15;101914.09;4985263;28;20058;-60
2022/03/05 00:10:21;;;;;;;5.63;2.55;;;;;;;-0.67;70.45;101913.94;4985337;28;20069;-60
2022/03/05 00:12:47;;;;;;;11.27;3.00;;;;;;;-0.68;70.87;101919.81;4984129;28;20054;-59
2022/03/05 00:15:14;;;;;;;5.30;2.20;;;;;;;-0.67;70.72;101918.16;4984647;28;20046;-59
2022/03/05 00:17:42;;;;;;;6.15;2.30;;;;;;;-0.67;71.67;101908.84;4985194;28;20484;-58
2022/03/05 00:20:09;;;;;;;5.80;2.17;;;;;;;-0.61;71.26;101920.16;4984173;28;20046;-59
2022/03/05 00:22:36;;;;;;;5.40;2.33;;;;;;;-0.59;71.00;101919.44;4984445;28;20487;-59
2022/03/05 00:25:03;;;;;;;8.13;2.92;;;;;;;-0.56;71.32;101927.25;4984093;28;20051;-59
2022/03/05 00:27:30;;;;;;;11.10;3.08;;;;;;;-0.53;71.02;101921.47;4983027;28;20054;-59
2022/03/05 00:29:57;;;;;;;7.22;2.95;;;;;;;-0.51;71.73;101919.91;4981692;28;20046;-59
2022/03/05 00:32:23;;;;;;;6.00;2.38;;;;;;;-0.48;71.64;101918.41;4983804;28;20090;-60
2022/03/05 00:34:51;;;;;;;7.95;2.75;;;;;;;-0.44;71.39;101911.81;4985240;28;20054;-59
2022/03/05 00:37:18;;;;;;;7.13;2.97;;;;;;;-0.42;71.56;101911.09;4983665;28;20411;-59
2022/03/05 00:39:45;;;;;;;6.00;2.38;;;;;;;-0.38;71.72;101914.69;4984271;28;20126;-60
2022/03/05 00:42:12;;;;;;;8.18;2.53;;;;;;;-0.35;71.52;101907.19;4984621;28;20046;-60
2022/03/05 00:44:38;;;;;;;6.07;2.65;;;;;;;-0.31;71.36;101909.13;4983859;28;20062;-60
2022/03/05 00:47:05;;;;;;;6.18;3.13;;;;;;;-0.28;71.37;101901.63;4982169;28;20050;-59
2022/03/05 00:49:33;;;;;;;7.05;2.55;;;;;;;-0.22;71.46;101904.50;4983049;28;20055;-59
2022/03/05 00:52:01;;;;;;;7.57;2.08;;;;;;;-0.18;71.12;101901.34;4984058;28;21390;-60
2022/03/05 00:54:27;;;;;;;5.60;2.45;;;;;;;-0.16;71.01;101904.84;4984490;28;20939;-60
2022/03/05 00:56:54;;;;;;;8.15;3.28;;;;;;;-0.14;70.71;101903.25;4982369;28;20050;-60
2022/03/05 00:59:20;;;;;;;6.75;2.67;;;;;;;-0.14;70.75;101902.38;4983957;28;20051;-60
2022/03/05 01:01:46;;;;;;;9.85;2.30;;;;;;;-0.16;70.41;101897.19;4984415;28;20070;-58
2022/03/05 01:04:13;;;;;;;8.15;2.72;;;;;;;-0.17;70.64;101903.09;4982384;28;20042;-59
2022/03/05 01:06:39;;;;;;;9.45;2.65;;;;;;;-0.19;70.65;101894.47;4982528;28;20061;-59
2022/03/05 01:09:07;;;;;;;6.10;2.80;;;;;;;-0.24;70.59;101895.91;4981861;28;20058;-59
2022/03/05 01:11:34;;;;;;;6.63;2.78;;;;;;;-0.25;70.71;101898.38;4984269;28;20465;-59
2022/03/05 01:14:01;;;;;;;7.07;3.03;;;;;;;-0.26;70.75;101900.06;4983833;28;20057;-60
2022/03/05 01:16:27;;;;;;;5.85;2.58;;;;;;;-0.26;70.91;101892.41;4983898;28;20062;-60
2022/03/05 01:18:54;;;;;;;7.45;2.20;;;;;;;-0.26;70.91;101900.06;4984212;28;20395;-61
2022/03/05 01:21:20;;;;;;;9.23;3.20;;;;;;;-0.24;71.06;101895.91;4984218;28;20786;-60
2022/03/05 01:23:47;;;;;;;13.38;3.03;;;;;;;-0.23;71.07;101896.78;4981314;28;20058;-60
2022/03/05 01:26:15;;;;;;;11.25;3.13;;;;;;;-0.22;71.29;101894.31;4981869;28;20047;-60
2022/03/05 01:28:41;;;;;;;8.80;3.10;;;;;;;-0.22;71.31;101904.50;4982314;28;20074;-60
2022/03/05 01:31:07;;;;;;;10.65;3.83;;;;;;;-0.20;71.32;101902.03;4983826;28;20057;-59
2022/03/05 01:33:34;;;;;;;13.88;3.10;;;;;;;-0.20;71.09;101902.94;4983374;28;20158;-59
2022/03/05 01:36:00;;;;;;;8.00;3.50;;;;;;;-0.20;71.47;101897.84;4983159;28;20589;-58
2022/03/05 01:38:27;;;;;;;6.88;2.63;;;;;;;-0.19;71.39;101898.72;4984175;28;20381;-59
2022/03/05 01:40:53;;;;;;;7.18;2.92;;;;;;;-0.18;71.55;101906.44;4982165;28;20124;-59
2022/03/05 01:43:21;;;;;;;8.13;3.30;;;;;;;-0.15;71.63;101895.53;4983722;28;20438;-59
2022/03/05 01:45:48;;;;;;;9.98;3.13;;;;;;;-0.10;71.81;101899.19;4984101;28;20831;-59
2022/03/05 01:48:14;;;;;;;9.48;3.75;;;;;;;-0.07;71.71;101905.31;4984085;28;20053;-60
2022/03/05 01:50:41;;;;;;;11.45;4.45;;;;;;;-0.04;72.22;101905.50;4982372;28;20073;-59
2022/03/05 01:53:07;;;;;;;13.00;4.00;;;;;;;-0.01;72.08;101912.41;4983632;28;20491;-60
2022/03/05 01:55:34;;;;;;;14.27;5.18;;;;;;;0.01;72.11;101909.97;4984138;28;20058;-59
2022/03/05 01:58:01;;;;;;;13.35;5.90;;;;;;;0.03;72.08;101910.94;4984111;28;20050;-59
2022/03/05 02:00:28;;;;;;;12.85;4.50;;;;;;;0.04;72.23;101907.59;4984202;28;20068;-60
2022/03/05 02:02:55;;;;;;;8.93;4.30;;;;;;;0.06;72.35;101906.00;4988290;28;20061;-60
2022/03/05 02:05:23;;;;;;;10.35;4.63;;;;;;;0.06;72.69;101900.91;4987169;28;20057;-60
2022/03/05 02:07:49;;;;;;;13.00;4.95;;;;;;;0.09;72.49;101911.25;4987669;28;20054;-61
2022/03/05 02:10:16;;;;;;;14.43;4.80;;;;;;;0.11;72.63;101914.75;4987243;28;20054;-61
2022/03/05 02:12:43;;;;;;;12.50;4.22;;;;;;;0.13;72.68;101908.06;4986958;28;20054;-60
2022/03/05 02:15:10;;;;;;;8.18;3.85;;;;;;;0.15;72.79;101906.47;4987172;28;20054;-60
2022/03/05 02:17:38;;;;;;;10.98;4.28;;;;;;;0.18;72.91;101909.19;4987866;28;20065;-60
2022/03/05 02:20:06;;;;;;;7.32;2.72;;;;;;;0.19;72.92;101913.50;4986913;28;20049;-60
2022/03/05 02:22:34;;;;;;;7.38;2.47;;;;;;;0.17;72.92;101904.88;4986715;28;20494;-60
2022/03/05 02:25:03;;;;;;;4.05;2.35;;;;;;;0.17;73.35;101899.78;4987448;28;20499;-59
2022/03/05 02:27:30;;;;;;;4.15;1.77;;;;;;;0.18;73.27;101902.41;4987408;28;20151;-59
2022/03/05 02:29:57;;;;;;;9.85;1.77;;;;;;;0.20;73.22;101905.03;4986535;28;20042;-59
2022/03/05 02:32:24;;;;;;;8.15;2.45;;;;;;;0.17;72.97;101905.75;4986466;28;20050;-59
2022/03/05 02:34:51;;;;;;;7.30;2.17;;;;;;;0.16;73.08;101895.47;4986008;28;20051;-59
2022/03/05 02:37:18;;;;;;;6.05;2.00;;;;;;;0.14;73.28;101897.09;4987422;28;20049;-59
2022/03/05 02:39:47;;;;;;;7.38;2.40;;;;;;;0.14;73.02;101902.19;4986408;28;20058;-59
2022/03/05 02:42:15;;;;;;;6.45;1.90;;;;;;;0.13;73.25;101902.97;4986869;28;20062;-59
2022/03/05 02:44:42;;;;;;;3.63;1.30;;;;;;;0.12;73.07;101903.78;4986891;28;20069;-60
2022/03/05 02:47:08;;;;;;;5.18;1.70;;;;;;;0.09;73.00;101908.72;4986724;28;20058;-60
2022/03/05 02:49:35;;;;;;;6.07;1.77;;;;;;;0.08;72.98;101914.59;4986165;28;20058;-59
2022/03/05 02:52:02;;;;;;;7.65;2.22;;;;;;;0.07;73.35;101907.75;4985357;28;20484;-60
2022/03/05 02:54:29;;;;;;;4.20;2.22;;;;;;;0.06;73.25;101911.09;4987747;28;20487;-59
2022/03/05 02:56:56;;;;;;;6.32;2.28;;;;;;;0.06;73.18;101911.09;4984584;28;20061;-59
2022/03/05 02:59:25;;;;;;;5.63;1.95;;;;;;;0.06;73.31;101911.09;4986126;28;20534;-59
2022/03/05 03:01:51;;;;;;;6.35;2.42;;;;;;;0.04;73.09;101918.66;4984974;28;20057;-60
2022/03/05 03:04:18;;;;;;;4.03;1.55;;;;;;;0.05;73.59;101922.09;4987104;28;20515;-59
2022/03/05 03:06:44;;;;;;;4.78;1.60;;;;;;;0.08;73.26;101909.50;4985438;28;20058;-59
2022/03/05 03:09:10;;;;;;;4.53;1.70;;;;;;;0.09;73.71;101921.47;4986075;28;20050;-59
2022/03/05 03:11:37;;;;;;;4.20;1.40;;;;;;;0.11;73.45;101909.66;4986058;28;20053;-59
2022/03/05 03:14:05;;;;;;;4.78;1.52;;;;;;;0.12;73.43;101911.41;4985166;28;20050;-58
2022/03/05 03:16:31;;;;;;;3.45;1.13;;;;;;;0.14;73.59;101907.28;4985081;28;20054;-59
2022/03/05 03:18:57;;;;;;;6.28;1.48;;;;;;;0.16;73.29;101905.69;4985040;28;20050;-59
2022/03/05 03:21:24;;;;;;;5.47;1.30;;;;;;;0.18;73.37;101906.63;4986242;28;20054;-60
2022/03/05 03:23:50;;;;;;;2.97;0.93;;;;;;;0.16;73.20;101914.22;4984661;28;20415;-58
2022/03/05 03:26:17;;;;;;;2.53;0.85;;;;;;;0.17;73.24;101912.53;4985613;28;20061;-58
2022/03/05 03:28:43;;;;;;;4.80;1.13;;;;;;;0.19;73.22;101914.38;4985992;28;20069;-59
2022/03/05 03:31:11;;;;;;;5.00;1.17;;;;;;;0.20;73.16;101921.22;4985605;28;20054;-60
2022/03/05 03:33:37;;;;;;;3.35;1.10;;;;;;;0.20;73.39;101920.34;4984146;28;20385;-60
2022/03/05 03:36:04;;;;;;;4.43;1.15;;;;;;;0.20;73.05;101925.44;4985447;28;20057;-60
2022/03/05 03:38:31;;;;;;;3.97;1.40;;;;;;;0.18;73.00;101927.91;4986087;28;20451;-59
2022/03/05 03:40:57;;;;;;;4.22;1.42;;;;;;;0.17;73.15;101920.19;4985110;28;20058;-59
2022/03/05 03:43:23;;;;;;;6.35;1.90;;;;;;;0.18;73.13;101927.91;4982980;28;20057;-59
2022/03/05 03:45:50;;;;;;;3.97;1.50;;;;;;;0.17;73.18;101930.38;4984718;28;20054;-59
2022/03/05 03:48:18;;;;;;;2.00;0.90;;;;;;;0.19;73.27;101926.25;4986375;28;20054;-59
2022/03/05 03:50:44;;;;;;;5.32;1.15;;;;;;;0.17;73.02;101925.28;4983394;28;20062;-60
2022/03/05 03:53:11;;;;;;;4.95;1.02;;;;;;;0.15;73.14;101930.31;4983953;28;20054;-60
2022/03/05 03:55:37;;;;;;;2.80;0.73;;;;;;;0.17;73.11;101936.38;4985763;28;20062;-59
2022/03/05 03:58:05;;;;;;;4.53;1.30;;;;;;;0.16;72.97;101929.50;4985779;28;20057;-59
2022/03/05 04:00:31;;;;;;;4.40;0.93;;;;;;;0.13;72.82;101928.47;4983056;28;20050;-58
2022/03/05 04:02:58;;;;;;;4.18;0.77;;;;;;;0.12;72.69;101931.81;4984553;28;20065;-59
2022/03/05 04:05:26;;;;;;;5.88;1.00;;;;;;;0.13;72.84;101936.13;4984903;28;20054;-59
2022/03/05 04:10:38;;;;;;;2.50;0.88;;;;;;;0.17;72.60;101945.69;4985269;28;20061;-59
2022/03/05 04:13:04;;;;;;;2.75;0.60;;;;;;;0.19;72.48;101939.88;4983880;28;20078;-59
2022/03/05 04:15:30;;;;;;;2.72;0.70;;;;;;;0.19;72.47;101941.53;4985052;28;20463;-59
2022/03/05 04:17:57;;;;;;;5.53;1.00;;;;;;;0.18;72.35;101937.25;4985075;28;20054;-60
2022/03/05 04:20:23;;;;;;;4.72;1.20;;;;;;;0.19;72.47;101942.41;4983310;28;20054;-60
2022/03/05 04:22:51;;;;;;;4.30;1.38;;;;;;;0.22;72.52;101939.16;4983897;28;20427;-59
2022/03/05 04:25:17;;;;;;;2.90;1.23;;;;;;;0.23;72.28;101935.81;4985179;28;20054;-59
2022/03/05 04:27:44;;;;;;;3.45;1.20;;;;;;;0.24;72.72;101943.53;4984721;28;20088;-59
2022/03/05 04:30:11;;;;;;;2.13;0.90;;;;;;;0.27;72.25;101947.91;4985187;28;20050;-59
2022/03/05 04:32:38;;;;;;;2.72;1.45;;;;;;;0.28;72.47;101942.03;4984113;28;20054;-60
2022/03/05 04:35:06;;;;;;;3.22;1.33;;;;;;;0.27;72.05;101948.78;4985131;28;20054;-60
2022/03/05 04:37:32;;;;;;;3.55;1.30;;;;;;;0.25;71.76;101946.97;4983862;28;20066;-60
2022/03/05 04:40:01;;;;;;;5.10;1.30;;;;;;;0.22;71.44;101950.22;4984007;28;20073;-60
2022/03/05 04:42:27;;;;;;;7.03;0.90;;;;;;;0.22;71.57;101944.25;4984480;28;20179;-60
2022/03/05 04:44:54;;;;;;;2.53;0.93;;;;;;;0.21;70.98;101948.47;4983803;28;20061;-59
2022/03/05 04:47:20;;;;;;;3.00;1.00;;;;;;;0.22;70.95;101949.34;4984008;28;20141;-60
2022/03/05 04:49:47;;;;;;;4.00;1.20;;;;;;;0.22;71.00;101949.34;4984232;28;20054;-60
2022/03/05 04:52:13;;;;;;;5.70;1.17;;;;;;;0.23;70.79;101954.53;4983676;28;20054;-59
2022/03/05 04:54:40;;;;;;;2.83;0.93;;;;;;;0.21;70.02;101950.16;4984925;28;20082;-60
2022/03/05 04:57:08;;;;;;;3.53;0.90;;;;;;;0.14;69.72;101954.06;4983347;28;20058;-60
2022/03/05 04:59:34;;;;;;;4.75;0.93;;;;;;;0.11;69.20;101960.66;4983812;28;20058;-60
2022/03/05 05:02:00;;;;;;;3.65;1.08;;;;;;;0.08;69.04;101958.81;4984633;28;20069;-59
2022/03/05 05:04:28;;;;;;;2.88;0.85;;;;;;;0.07;68.76;101961.28;4981720;28;20057;-60
2022/03/05 05:06:54;;;;;;;4.30;1.00;;;;;;;0.05;68.88;101965.44;4979781;28;20149;-60
2022/03/05 05:09:21;;;;;;;1.60;0.60;;;;;;;0.03;68.46;101964.47;4980624;28;20069;-60
2022/03/05 05:11:47;;;;;;;5.28;0.80;;;;;;;-0.02;68.28;101970.19;4981381;28;20058;-60
2022/03/05 05:14:15;;;;;;;2.53;0.98;;;;;;;-0.06;67.78;101963.16;4979738;28;20057;-60
2022/03/05 05:16:42;;;;;;;2.22;0.80;;;;;;;-0.11;67.50;101969.69;4981466;28;20054;-60
2022/03/05 05:19:27;;;;;;;3.97;0.88;;;;;;;-0.11;67.44;101973.91;4983512;28;20054;-60
2022/03/05 05:21:55;;;;;;;3.90;0.98;;;;;;;-0.13;67.21;101968.72;4982109;28;21026;-60
2022/03/05 05:24:21;;;;;;;4.32;1.33;;;;;;;-0.14;67.16;101978.84;4980956;28;20057;-60
2022/03/05 05:26:48;;;;;;;3.70;0.98;;;;;;;-0.16;66.65;101973.66;4981854;28;20058;-60
2022/03/05 05:29:16;;;;;;;2.78;1.13;;;;;;;-0.16;66.78;101986.41;4981383;28;20070;-60
2022/03/05 05:31:42;;;;;;;2.05;1.20;;;;;;;-0.16;66.85;101976.19;4982400;28;20054;-60
2022/03/05 05:34:08;;;;;;;4.32;1.20;;;;;;;-0.15;66.88;101977.97;4981454;28;20054;-60
2022/03/05 05:36:36;;;;;;;4.72;1.15;;;;;;;-0.13;66.38;101978.91;4980282;28;20054;-60
2022/03/05 05:39:03;;;;;;;3.90;1.15;;;;;;;-0.11;66.31;101984.97;4981613;28;20550;-60
2022/03/05 05:41:29;;;;;;;4.15;1.27;;;;;;;-0.08;66.20;101979.16;4979710;28;20051;-60
2022/03/05 05:43:56;;;;;;;6.22;1.50;;;;;;;-0.05;66.00;101985.31;4980471;28;20053;-60
2022/03/05 05:46:24;;;;;;;3.40;1.30;;;;;;;-0.02;66.01;101990.56;4980351;28;20592;-60
2022/03/05 05:48:50;;;;;;;4.28;1.30;;;;;;;0.02;66.04;101985.66;4981335;28;20054;-60
2022/03/05 05:51:17;;;;;;;3.25;1.20;;;;;;;0.04;65.82;101984.97;4981246;28;20051;-60
2022/03/05 05:53:44;;;;;;;3.28;1.13;;;;;;;0.07;65.74;101984.25;4980040;28;20795;-59
2022/03/05 05:56:10;;;;;;;3.20;1.25;;;;;;;0.09;65.51;101990.31;4981445;28;20053;-60
2022/03/05 05:58:36;;;;;;;2.03;0.80;;;;;;;0.11;65.38;101991.25;4980895;28;20077;-60
2022/03/05 06:01:03;;;;;;;1.67;0.70;;;;;;;0.12;65.31;101982.81;4980789;28;20051;-59
2022/03/05 06:03:31;;;;;;;1.73;0.70;;;;;;;0.12;64.50;101993.88;4980674;28;20057;-60
2022/03/05 06:05:59;;;;;;;3.92;1.42;;;;;;;0.11;64.50;101993.81;4981154;28;20057;-60
2022/03/05 06:08:25;;;;;;;5.25;1.10;;;;;;;0.08;63.96;101991.09;4982168;28;20046;-60
2022/03/05 06:10:52;;;;;;;4.38;1.35;;;;;;;0.10;63.97;101989.50;4982566;28;20061;-60
2022/03/05 06:13:19;;;;;;;2.83;1.80;;;;;;;0.10;63.66;101995.47;4978860;28;21008;-60
2022/03/05 06:15:45;;;;;;;3.63;1.58;;;;;;;0.08;63.71;101986.00;4982501;28;20142;-60
2022/03/05 06:18:12;;;;;;;4.45;1.60;;;;;;;0.04;62.99;101994.28;4982214;28;20050;-60
2022/03/05 06:20:40;;;;;;;4.35;1.70;;;;;;;-0.01;62.57;101996.53;4981418;28;20065;-60
2022/03/05 06:23:06;;;;;;;3.63;1.52;;;;;;;-0.03;63.03;101993.91;4981143;28;20392;-60
2022/03/05 06:25:33;;;;;;;3.88;1.30;;;;;;;-0.02;62.83;102000.75;4982166;28;20054;-60
2022/03/05 06:27:59;;;;;;;4.00;1.42;;;;;;;-0.01;62.52;101997.41;4981233;28;20075;-60
2022/03/05 06:30:26;;;;;;;2.88;1.00;;;;;;;0.04;62.50;102004.47;4982001;28;20057;-60
2022/03/05 06:32:52;;;;;;;4.45;1.23;;;;;;;0.08;62.45;102006.41;4980826;28;20145;-60
2022/03/05 06:35:19;;;;;;;3.88;1.35;;;;;;;0.12;62.47;102008.31;4981325;28;20045;-60
2022/03/05 06:37:47;;;;;;;4.03;1.38;;;;;;;0.20;62.24;102012.16;4981436;28;20396;-60
2022/03/05 06:40:13;;;;;;;4.88;1.35;;;;;;;0.22;61.34;102015.66;4979095;28;20060;-60
2022/03/05 06:42:40;;;;;;;2.92;1.00;;;;;;;0.25;61.11;102021.81;4980638;28;20050;-61
2022/03/05 06:45:08;;;;;;;3.67;1.17;;;;;;;0.31;61.24;102013.59;4981982;28;20050;-60
2022/03/05 06:47:36;;;;;;;3.97;1.13;;;;;;;0.41;60.92;102015.84;4982953;28;20057;-60
2022/03/05 06:50:03;;;;;;;2.53;0.80;;;;;;;0.51;60.91;102019.75;4983669;28;20077;-58
2022/03/05 06:52:30;;;;;;;5.80;1.42;;;;;;;0.67;60.91;102011.25;4984156;28;20058;-59
2022/03/05 06:54:58;;;;;;;2.10;0.95;;;;;;;0.86;60.75;102013.94;4986107;28;20058;-59
2022/03/05 06:57:24;;;;;;;2.92;0.80;;;;;;;1.06;60.41;102017.53;4986070;28;20141;-59
2022/03/05 06:59:51;;;;;;;5.13;0.95;;;;;;;1.26;59.54;102002.38;4984025;28;20053;-59
2022/03/05 07:02:18;;;;;;;2.58;0.90;;;;;;;1.48;58.65;102019.63;4985651;28;20054;-59
2022/03/05 07:04:44;;;;;;;2.55;0.80;;;;;;;1.71;58.57;102008.00;4985932;28;20491;-59
2022/03/05 07:07:11;;;;;;;3.70;1.08;;;;;;;1.95;57.77;102018.47;4987310;28;20081;-59
2022/03/05 07:09:37;;;;;;;2.65;1.10;;;;;;;2.16;56.69;102028.88;4984606;28;20063;-61
2022/03/05 07:12:06;;;;;;;3.17;1.15;;;;;;;2.26;56.40;102018.25;4985393;28;20053;-58
2022/03/05 07:14:33;;;;;;;6.35;0.93;;;;;;;2.39;55.61;102033.34;4985359;28;20062;-61
2022/03/05 07:16:59;;;;;;;2.15;0.57;;;;;;;2.28;53.66;102018.31;4984372;28;20507;-59
2022/03/05 07:19:26;;;;;;;3.13;0.90;;;;;;;2.15;54.45;102024.56;4983909;28;20069;-59
2022/03/05 07:21:52;;;;;;;4.78;0.88;;;;;;;2.06;54.94;102026.66;4986933;28;20054;-60
2022/03/05 07:24:19;;;;;;;2.85;1.00;;;;;;;1.95;54.85;102022.72;4985487;28;20062;-60
2022/03/05 07:26:45;;;;;;;2.40;0.70;;;;;;;1.82;54.89;102027.25;4984366;28;20060;-59
2022/03/05 07:29:13;;;;;;;3.40;0.90;;;;;;;1.80;55.68;102026.31;4985729;28;20113;-59
2022/03/05 07:31:40;;;;;;;3.47;0.90;;;;;;;1.87;56.11;102024.91;4985438;28;20061;-59
2022/03/05 07:34:06;;;;;;;3.83;0.98;;;;;;;1.97;56.11;102021.13;4982694;28;20053;-59
2022/03/05 07:36:32;;;;;;;2.42;0.80;;;;;;;2.02;55.27;102030.75;4984064;28;20054;-58
2022/03/05 07:38:59;;;;;;;1.98;0.77;;;;;;;1.98;54.70;102031.41;4987313;28;20057;-59
2022/03/05 07:41:25;;;;;;;3.90;1.23;;;;;;;1.95;54.48;102027.84;4984750;28;20365;-59
2022/03/05 07:43:52;;;;;;;0.85;0.50;;;;;;;1.98;55.36;102027.97;4982611;28;20061;-59
2022/03/05 07:46:19;;;;;;;2.83;0.70;;;;;;;2.09;55.37;102026.84;4983210;28;20055;-59
2022/03/05 07:48:46;;;;;;;2.78;1.00;;;;;;;2.17;55.58;102030.63;4983401;28;20077;-59
2022/03/05 07:51:12;;;;;;;2.85;1.08;;;;;;;2.12;54.25;102032.09;4982346;28;20054;-59
2022/03/05 07:53:39;;;;;;;4.07;0.85;;;;;;;2.09;54.81;102032.81;4984165;28;20050;-59
2022/03/05 07:56:06;;;;;;;4.63;0.75;;;;;;;2.13;55.24;102031.28;4984898;28;20062;-59
2022/03/05 07:58:32;;;;;;;3.42;0.77;;;;;;;2.18;55.36;102033.25;4983313;28;20057;-59
2022/03/05 08:00:59;;;;;;;3.00;1.08;;;;;;;2.24;55.24;102037.75;4981838;28;20054;-60
2022/03/05 08:03:26;;;;;;;4.15;1.73;;;;;;;2.30;55.80;102040.59;4982823;28;20066;-60
2022/03/05 08:05:53;;;;;;;3.03;1.08;;;;;;;2.36;55.17;102043.44;4981671;28;20050;-59
2022/03/05 08:08:19;;;;;;;5.20;1.00;;;;;;;2.44;54.90;102042.09;4984995;28;20050;-59
2022/03/05 08:10:46;;;;;;;2.55;0.80;;;;;;;2.45;54.59;102038.72;4982299;28;20060;-59
2022/03/05 08:13:12;;;;;;;2.42;0.80;;;;;;;2.44;54.18;102049.78;4982839;28;20418;-59
2022/03/05 08:15:39;;;;;;;6.80;0.70;;;;;;;2.39;54.09;102048.69;4982961;28;20050;-59
2022/03/05 08:18:06;;;;;;;1.48;0.50;;;;;;;2.31;54.20;102050.03;4981900;28;20093;-59
2022/03/05 08:20:34;;;;;;;5.65;0.70;;;;;;;2.31;54.12;102050.03;4979230;28;20049;-59
2022/03/05 08:23:01;;;;;;;0.98;0.50;;;;;;;2.32;54.46;102046.66;4981571;28;20046;-58
2022/03/05 08:25:28;;;;;;;3.78;1.10;;;;;;;2.37;54.53;102045.19;4983004;28;20050;-60
2022/03/05 08:27:55;;;;;;;3.17;0.90;;;;;;;2.40;54.69;102047.88;4981154;28;20065;-60
2022/03/05 08:30:21;;;;;;;2.22;0.82;;;;;;;2.40;54.82;102050.44;4980774;28;20061;-59
2022/03/05 08:32:48;;;;;;;2.22;0.80;;;;;;;2.42;54.70;102048.84;4981802;28;20495;-59
2022/03/05 08:35:16;;;;;;;2.05;0.85;;;;;;;2.44;55.00;102052.34;4981541;28;20063;-59
2022/03/05 08:37:44;;;;;;;3.67;1.40;;;;;;;2.50;54.90;102056.84;4979537;28;20065;-60
2022/03/05 08:40:13;;;;;;;7.95;2.83;;;;;;;2.55;54.72;102055.38;4980943;28;20058;-59
2022/03/05 08:42:40;;;;;;;4.88;1.08;;;;;;;2.54;54.52;102049.38;4983142;28;20058;-58
2022/03/05 08:45:07;;;;;;;5.07;0.90;;;;;;;2.55;54.38;102050.25;4982782;28;20050;-59
2022/03/05 08:47:34;;;;;;;3.03;0.85;;;;;;;2.60;54.64;102051.38;4981107;28;20543;-59
2022/03/05 08:50:01;;;;;;;5.05;1.00;;;;;;;2.73;54.38;102050.22;4979929;28;20053;-59
2022/03/05 08:52:28;;;;;;;2.50;0.85;;;;;;;2.90;54.26;102053.53;4979850;28;20054;-59
2022/03/05 08:54:56;;;;;;;3.58;1.20;;;;;;;3.00;53.46;102056.53;4982516;28;20062;-59
2022/03/05 08:57:23;;;;;;;1.55;0.70;;;;;;;3.04;51.70;102053.31;4981780;28;20066;-59
2022/03/05 08:59:49;;;;;;;4.88;0.50;;;;;;;2.91;51.68;102052.72;4981678;28;20573;-58
2022/03/05 09:02:16;;;;;;;1.80;0.73;;;;;;;2.92;52.31;102054.47;4982293;28;20042;-59
2022/03/05 09:04:42;;;;;;;4.03;1.10;;;;;;;2.95;52.89;102055.47;4981464;28;20045;-59
2022/03/05 09:07:08;;;;;;;4.38;1.10;;;;;;;2.97;53.12;102056.41;4980990;28;20054;-59
2022/03/05 09:09:35;;;;;;;3.47;1.20;;;;;;;2.92;51.69;102063.03;4981867;28;20058;-59
2022/03/05 09:12:03;;;;;;;5.78;0.93;;;;;;;2.82;52.66;102056.63;4981835;28;20057;-59
2022/03/05 09:14:30;;;;;;;4.38;1.05;;;;;;;2.76;52.19;102060.59;4981191;28;20415;-59
2022/03/05 09:16:56;;;;;;;3.75;0.70;;;;;;;2.73;52.67;102061.34;4980802;28;20058;-58
2022/03/05 09:19:23;;;;;;;1.83;0.88;;;;;;;2.74;52.88;102072.47;4977793;28;20141;-58
2022/03/05 09:21:49;;;;;;;2.20;0.63;;;;;;;2.74;52.85;102062.22;4984671;28;20419;-58
2022/03/05 09:24:16;;;;;;;3.58;0.80;;;;;;;2.77;53.64;102062.34;4979707;28;20052;-58
2022/03/05 09:26:42;;;;;;;3.97;1.42;;;;;;;2.79;54.01;102060.75;4982700;28;20077;-58
2022/03/05 09:29:11;;;;;;;5.55;1.83;;;;;;;2.84;53.47;102064.38;4981146;28;20054;-58
2022/03/05 09:31:39;;;;;;;5.57;1.45;;;;;;;2.85;53.18;102071.25;4981290;28;20050;-58
2022/03/05 09:34:05;;;;;;;3.40;0.90;;;;;;;2.85;53.50;102066.13;4979433;28;20045;-59
2022/03/05 09:36:32;;;;;;;3.85;1.13;;;;;;;2.93;54.45;102064.78;4980881;28;20054;-58
2022/03/05 09:38:58;;;;;;;4.55;1.15;;;;;;;2.99;54.12;102065.03;4982166;28;20133;-58
2022/03/05 09:41:26;;;;;;;3.97;1.27;;;;;;;3.05;54.34;102070.44;4981782;28;20050;-58
2022/03/05 09:43:52;;;;;;;3.75;1.33;;;;;;;3.05;53.22;102078.13;4981619;28;20065;-59
2022/03/05 09:46:22;;;;;;;3.42;1.00;;;;;;;2.99;53.36;102070.16;4982916;28;20381;-58
2022/03/05 09:48:52;;;;;;;4.45;1.27;;;;;;;2.96;53.80;102071.72;4981247;28;20062;-59
2022/03/05 09:51:21;;;;;;;3.63;1.08;;;;;;;2.95;53.61;102073.41;4981201;28;20511;-58
2022/03/05 09:53:48;;;;;;;1.90;0.90;;;;;;;3.04;53.36;102068.69;4982350;28;20057;-58
2022/03/05 09:56:14;;;;;;;3.70;1.27;;;;;;;3.17;53.51;102059.84;4981838;28;20325;-58
2022/03/05 09:58:41;;;;;;;1.77;0.82;;;;;;;3.34;52.99;102065.69;4982432;28;20089;-59
2022/03/05 10:01:08;;;;;;;2.65;1.10;;;;;;;3.48;52.17;102068.00;4980953;28;20470;-58
2022/03/05 10:03:44;;;;;;;3.40;1.20;;;;;;;3.67;51.64;102071.34;4978225;28;20050;-58
2022/03/05 10:06:16;;;;;;;3.05;0.90;;;;;;;3.71;50.85;102070.66;4976738;28;20128;-59
2022/03/05 10:08:42;;;;;;;10.68;3.95;;;;;;;3.75;50.57;102063.16;4980630;28;20142;-58
2022/03/05 10:11:11;;;;;;;5.00;1.80;;;;;;;3.88;49.99;102069.66;4981155;28;20058;-59
2022/03/05 10:13:39;;;;;;;4.45;0.88;;;;;;;4.01;50.25;102071.88;4981331;28;20577;-59
2022/03/05 10:16:07;;;;;;;3.53;0.95;;;;;;;4.23;50.63;102073.63;4981933;28;20149;-58
2022/03/05 10:18:35;;;;;;;2.50;0.77;;;;;;;4.33;49.33;102075.72;4980941;28;20054;-59
2022/03/05 10:21:05;;;;;;;2.38;0.63;;;;;;;4.26;49.09;102073.75;4980129;28;20050;-59
2022/03/05 10:23:34;;;;;;;6.28;0.90;;;;;;;4.19;47.82;102086.28;4984896;28;20054;-58
2022/03/05 10:26:04;;;;;;;1.33;0.60;;;;;;;4.04;48.99;102066.00;4986319;28;20049;-56
2022/03/05 10:28:31;;;;;;;4.22;1.30;;;;;;;3.87;49.13;102072.16;4985125;28;20140;-55
2022/03/05 10:31:02;;;;;;;4.35;1.70;;;;;;;3.82;49.98;102073.66;4983689;28;20054;-56
2022/03/05 10:33:31;;;;;;;2.78;0.75;;;;;;;3.90;49.87;102068.03;4984517;28;20047;-54
2022/03/05 10:36:00;;;;;;;1.75;0.63;;;;;;;3.91;48.78;102072.34;4983087;28;20050;-55
2022/03/05 10:38:50;;;;;;;4.20;1.48;;;;;;;4.01;48.98;102081.28;4979964;28;20057;-54
2022/03/05 10:41:18;;;;;;;3.83;1.15;;;;;;;3.95;48.74;102086.16;4983623;28;20422;-55
2022/03/05 10:43:47;;;;;;;3.85;1.30;;;;;;;3.90;48.98;102069.72;4984966;28;20148;-55
2022/03/05 10:46:14;;;;;;;4.53;1.65;;;;;;;4.02;49.43;102077.91;4984021;28;20058;-55
2022/03/05 10:48:41;;;;;;;2.08;0.77;;;;;;;4.05;48.16;102072.88;4982791;28;20057;-56
2022/03/05 10:51:11;;;;;;;2.47;0.70;;;;;;;4.13;49.02;102076.63;4983172;28;20054;-56
2022/03/05 10:53:43;;;;;;;3.55;1.63;;;;;;;4.13;48.62;102072.38;4984419;28;20142;-56
2022/03/05 10:56:27;;;;;;;2.28;0.80;;;;;;;4.07;48.15;102071.25;4982792;28;20768;-55
2022/03/05 10:59:01;;;;;;;4.18;0.90;;;;;;;4.18;49.36;102059.75;4982956;28;20058;-55
2022/03/05 11:01:28;;;;;;;4.53;1.08;;;;;;;4.41;49.67;102069.19;4984366;28;20056;-55
2022/03/05 11:03:55;;;;;;;3.45;1.23;;;;;;;4.48;48.10;102056.56;4984958;28;20045;-56
2022/03/05 11:06:22;;;;;;;1.48;0.63;;;;;;;4.53;47.96;102055.03;4981657;28;20050;-55
2022/03/05 11:08:49;;;;;;;3.17;1.00;;;;;;;4.60;47.69;102069.88;4984686;28;20145;-56
2022/03/05 11:11:17;;;;;;;1.13;0.52;;;;;;;4.62;47.14;102057.94;4982313;28;20487;-55
2022/03/05 11:13:45;;;;;;;4.88;1.20;;;;;;;4.50;47.99;102057.50;4983373;28;20069;-55
2022/03/05 11:16:13;;;;;;;1.92;0.73;;;;;;;4.51;48.77;102060.13;4982681;28;20062;-56
2022/03/05 11:18:40;;;;;;;2.40;1.05;;;;;;;4.44;47.77;102059.03;4983174;28;20583;-56
2022/03/05 11:21:08;;;;;;;2.40;0.98;;;;;;;4.34;47.64;102061.19;4984345;28;20049;-54
2022/03/05 11:23:36;;;;;;;1.27;0.70;;;;;;;4.18;47.58;102059.75;4982758;28;20050;-54
2022/03/05 11:26:04;;;;;;;2.55;1.08;;;;;;;4.11;48.35;102066.28;4982949;28;20131;-56
2022/03/05 11:28:35;;;;;;;6.47;1.88;;;;;;;4.09;47.93;102064.47;4981683;28;20073;-55
2022/03/05 11:31:07;;;;;;;2.67;1.10;;;;;;;4.06;47.61;102048.97;4984624;28;20157;-56
2022/03/05 11:33:38;;;;;;;3.63;1.00;;;;;;;4.16;48.55;102048.50;4982197;28;20065;-55